Time,TemperatureF,DewpointF,PressureIn,WindDirection,WindDirectionDegrees,WindSpeedMPH,WindSpeedGustMPH,Humidity,HourlyPrecipIn,Conditions,Clouds,dailyrainin,SoftwareType,DateUTC
2013-02-17 00:04:00,21.6,15.0,30.21,NNW,333,0.0,0.0,77,0.00,,,0.00,weatherlink.com 1.10,2013-02-17 06:04:00,
2013-02-17 00:19:00,21.5,16.0,30.21,NNW,333,0.0,0.0,78,0.00,,,0.00,weatherlink.com 1.10,2013-02-17 06:19:00,
2013-02-17 00:34:00,21.2,15.0,30.21,NNW,333,0.0,0.0,76,0.00,,,0.00,weatherlink.com 1.10,2013-02-17 06:34:00,
2013-02-17 00:49:00,21.1,14.0,30.21,NNW,333,0.0,0.0,75,0.00,,,0.00,weatherlink.com 1.10,2013-02-17 06:49:00,
2013-02-17 01:04:00,21.1,15.0,30.21,NNW,333,0.0,0.0,77,0.00,,,0.00,weatherlink.com 1.10,2013-02-17 07:04:00,
2013-02-17 01:20:00,20.9,15.0,30.21,NNW,333,0.0,0.0,77,0.00,,,0.00,weatherlink.com 1.10,2013-02-17 07:20:00,
2013-02-17 01:35:00,20.6,15.0,30.21,NNW,333,0.0,0.0,78,0.00,,,0.00,weatherlink.com 1.10,2013-02-17 07:35:00,
2013-02-17 01:50:00,20.4,15.0,30.21,NNW,333,0.0,0.0,80,0.00,,,0.00,weatherlink.com 1.10,2013-02-17 07:50:00,
2013-02-17 02:05:00,20.2,14.0,30.21,NNW,333,0.0,0.0,78,0.00,,,0.00,weatherlink.com 1.10,2013-02-17 08:05:00,
2013-02-17 02:20:00,19.9,14.0,30.21,NNW,333,0.0,0.0,79,0.00,,,0.00,weatherlink.com 1.10,2013-02-17 08:20:00,
2013-02-17 02:35:00,19.8,15.0,30.21,NNW,333,0.0,0.0,81,0.00,,,0.00,weatherlink.com 1.10,2013-02-17 08:35:00,
2013-02-17 02:50:00,19.7,15.0,30.21,NNW,333,0.0,0.0,81,0.00,,,0.00,weatherlink.com 1.10,2013-02-17 08:50:00,
2013-02-17 03:05:00,19.6,15.0,30.21,NNW,333,0.0,0.0,82,0.00,,,0.00,weatherlink.com 1.10,2013-02-17 09:05:00,
2013-02-17 03:20:00,19.4,15.0,30.21,NNW,333,0.0,0.0,82,0.00,,,0.00,weatherlink.com 1.10,2013-02-17 09:20:00,
2013-02-17 03:35:00,19.2,14.0,30.21,NNW,333,0.0,0.0,80,0.00,,,0.00,weatherlink.com 1.10,2013-02-17 09:35:00,
2013-02-17 03:50:00,19.1,14.0,30.21,NNW,333,0.0,0.0,80,0.00,,,0.00,weatherlink.com 1.10,2013-02-17 09:50:00,
2013-02-17 04:05:00,19.0,14.0,30.22,NNW,333,0.0,0.0,81,0.00,,,0.00,weatherlink.com 1.10,2013-02-17 10:05:00,
2013-02-17 04:20:00,18.8,14.0,30.22,NNW,333,0.0,0.0,81,0.00,,,0.00,weatherlink.com 1.10,2013-02-17 10:20:00,
2013-02-17 04:35:00,18.7,14.0,30.22,NNW,333,0.0,0.0,82,0.00,,,0.00,weatherlink.com 1.10,2013-02-17 10:35:00,
2013-02-17 04:50:00,18.7,14.0,30.23,NNW,333,0.0,0.0,80,0.00,,,0.00,weatherlink.com 1.10,2013-02-17 10:50:00,
2013-02-17 05:05:00,18.7,14.0,30.23,NNW,333,0.0,0.0,81,0.00,,,0.00,weatherlink.com 1.10,2013-02-17 11:05:00,
2013-02-17 05:20:00,18.6,14.0,30.23,NNW,333,0.0,0.0,82,0.00,,,0.00,weatherlink.com 1.10,2013-02-17 11:20:00,
2013-02-17 05:35:00,18.5,14.0,30.24,NNW,333,0.0,0.0,83,0.00,,,0.00,weatherlink.com 1.10,2013-02-17 11:35:00,
2013-02-17 05:50:00,18.3,14.0,30.24,NNW,333,0.0,0.0,83,0.00,,,0.00,weatherlink.com 1.10,2013-02-17 11:50:00,
2013-02-17 06:05:00,18.4,14.0,30.24,NNW,333,0.0,0.0,84,0.00,,,0.00,weatherlink.com 1.10,2013-02-17 12:05:00,
2013-02-17 06:20:00,18.2,14.0,30.25,NNW,333,0.0,0.0,84,0.00,,,0.00,weatherlink.com 1.10,2013-02-17 12:20:00,
2013-02-17 06:35:00,18.0,14.0,30.25,NNW,333,0.0,0.0,85,0.00,,,0.00,weatherlink.com 1.10,2013-02-17 12:35:00,
2013-02-17 06:50:00,18.4,15.0,30.26,NNW,333,0.0,0.0,86,0.00,,,0.00,weatherlink.com 1.10,2013-02-17 12:50:00,
2013-02-17 07:05:00,20.2,16.0,30.26,NNW,333,0.0,0.0,85,0.00,,,0.00,weatherlink.com 1.10,2013-02-17 13:05:00,
2013-02-17 07:20:00,21.9,17.0,30.27,NNW,333,0.0,0.0,82,0.00,,,0.00,weatherlink.com 1.10,2013-02-17 13:20:00,
2013-02-17 07:35:00,23.8,19.0,30.27,NNW,333,0.0,0.0,81,0.00,,,0.00,weatherlink.com 1.10,2013-02-17 13:35:00,
2013-02-17 07:50:00,25.4,19.0,30.28,NNW,333,0.0,0.0,77,0.00,,,0.00,weatherlink.com 1.10,2013-02-17 13:50:00,
2013-02-17 08:05:00,26.4,20.0,30.28,NNW,333,0.0,1.0,78,0.00,,,0.00,weatherlink.com 1.10,2013-02-17 14:05:00,
2013-02-17 08:20:00,28.0,19.0,30.29,West,265,3.0,3.0,68,0.00,,,0.00,weatherlink.com 1.10,2013-02-17 14:20:00,
2013-02-17 08:35:00,29.6,19.0,30.29,SW,234,2.0,5.0,65,0.00,,,0.00,weatherlink.com 1.10,2013-02-17 14:35:00,
2013-02-17 08:51:00,31.5,21.0,30.30,SSW,206,2.0,5.0,64,0.00,,,0.00,weatherlink.com 1.10,2013-02-17 14:51:00,
2013-02-17 09:06:00,33.0,20.0,30.30,SSW,197,0.0,7.0,60,0.00,,,0.00,weatherlink.com 1.10,2013-02-17 15:06:00,
2013-02-17 09:21:00,33.6,21.0,30.30,WSW,250,0.0,6.0,60,0.00,,,0.00,weatherlink.com 1.10,2013-02-17 15:21:00,
2013-02-17 09:36:00,34.7,20.0,30.30,SW,215,2.0,6.0,56,0.00,,,0.00,weatherlink.com 1.10,2013-02-17 15:36:00,
2013-02-17 09:51:00,35.7,19.0,30.30,NW,319,2.0,6.0,52,0.00,,,0.00,weatherlink.com 1.10,2013-02-17 15:51:00,
2013-02-17 10:06:00,36.9,19.0,30.29,West,267,2.0,5.0,49,0.00,,,0.00,weatherlink.com 1.10,2013-02-17 16:06:00,
2013-02-17 10:21:00,39.1,22.0,30.29,ESE,119,0.0,2.0,51,0.00,,,0.00,weatherlink.com 1.10,2013-02-17 16:21:00,
2013-02-17 10:36:00,39.9,19.0,30.29,West,262,3.0,4.0,44,0.00,,,0.00,weatherlink.com 1.10,2013-02-17 16:36:00,
2013-02-17 10:51:00,41.0,21.0,30.29,ESE,115,0.0,4.0,46,0.00,,,0.00,weatherlink.com 1.10,2013-02-17 16:51:00,
2013-02-17 11:06:00,41.1,19.0,30.28,WSW,252,4.0,9.0,42,0.00,,,0.00,weatherlink.com 1.10,2013-02-17 17:06:00,
2013-02-17 11:21:00,42.1,20.0,30.28,SSW,204,1.0,5.0,41,0.00,,,0.00,weatherlink.com 1.10,2013-02-17 17:21:00,
2013-02-17 11:36:00,42.7,17.0,30.27,WNW,290,0.0,11.0,36,0.00,,,0.00,weatherlink.com 1.10,2013-02-17 17:36:00,
2013-02-17 11:51:00,44.0,18.0,30.26,WSW,237,2.0,8.0,36,0.00,,,0.00,weatherlink.com 1.10,2013-02-17 17:51:00,
2013-02-17 12:06:00,43.9,19.0,30.25,WSW,242,2.0,5.0,37,0.00,,,0.00,weatherlink.com 1.10,2013-02-17 18:06:00,
2013-02-17 12:21:00,44.2,19.0,30.25,SW,227,0.0,7.0,37,0.00,,,0.00,weatherlink.com 1.10,2013-02-17 18:21:00,
2013-02-17 12:36:00,44.5,20.0,30.24,SE,139,1.0,8.0,37,0.00,,,0.00,weatherlink.com 1.10,2013-02-17 18:36:00,
2013-02-17 12:51:00,45.3,20.0,30.23,West,264,4.0,7.0,36,0.00,,,0.00,weatherlink.com 1.10,2013-02-17 18:51:00,
2013-02-17 13:06:00,45.6,20.0,30.23,WSW,238,3.0,9.0,36,0.00,,,0.00,weatherlink.com 1.10,2013-02-17 19:06:00,
2013-02-17 13:21:00,46.5,20.0,30.22,WSW,240,6.0,10.0,35,0.00,,,0.00,weatherlink.com 1.10,2013-02-17 19:21:00,
2013-02-17 13:36:00,46.7,20.0,30.22,SW,219,1.0,9.0,35,0.00,,,0.00,weatherlink.com 1.10,2013-02-17 19:36:00,
2013-02-17 13:51:00,46.4,20.0,30.21,NW,309,0.0,7.0,35,0.00,,,0.00,weatherlink.com 1.10,2013-02-17 19:51:00,
2013-02-17 14:06:00,47.1,21.0,30.21,WNW,294,7.0,7.0,35,0.00,,,0.00,weatherlink.com 1.10,2013-02-17 20:06:00,
2013-02-17 14:22:00,48.4,20.0,30.20,SSW,211,0.0,5.0,32,0.00,,,0.00,weatherlink.com 1.10,2013-02-17 20:22:00,
2013-02-17 14:36:00,47.7,18.0,30.20,West,272,1.0,7.0,31,0.00,,,0.00,weatherlink.com 1.10,2013-02-17 20:36:00,
2013-02-17 14:51:00,46.3,19.0,30.20,SSW,192,1.0,3.0,34,0.00,,,0.00,weatherlink.com 1.10,2013-02-17 20:51:00,
2013-02-17 15:07:00,46.1,18.0,30.20,ESE,118,0.0,5.0,32,0.00,,,0.00,weatherlink.com 1.10,2013-02-17 21:07:00,
2013-02-17 15:22:00,46.4,20.0,30.20,SW,219,0.0,6.0,35,0.00,,,0.00,weatherlink.com 1.10,2013-02-17 21:22:00,
2013-02-17 15:37:00,47.7,18.0,30.19,West,269,4.0,8.0,31,0.00,,,0.00,weatherlink.com 1.10,2013-02-17 21:37:00,
2013-02-17 15:52:00,47.1,18.0,30.19,SW,221,0.0,3.0,32,0.00,,,0.00,weatherlink.com 1.10,2013-02-17 21:52:00,
2013-02-17 16:07:00,46.6,19.0,30.19,SSW,203,0.0,3.0,34,0.00,,,0.00,weatherlink.com 1.10,2013-02-17 22:07:00,
2013-02-17 16:22:00,46.1,20.0,30.19,SSW,198,0.0,4.0,35,0.00,,,0.00,weatherlink.com 1.10,2013-02-17 22:22:00,
2013-02-17 16:37:00,46.0,20.0,30.18,SSW,202,0.0,2.0,36,0.00,,,0.00,weatherlink.com 1.10,2013-02-17 22:37:00,
2013-02-17 16:52:00,46.1,20.0,30.18,SSW,202,0.0,1.0,36,0.00,,,0.00,weatherlink.com 1.10,2013-02-17 22:52:00,
2013-02-17 17:08:00,46.1,20.0,30.18,SSE,162,0.0,1.0,35,0.00,,,0.00,weatherlink.com 1.10,2013-02-17 23:08:00,
2013-02-17 17:22:00,45.4,20.0,30.18,SSE,161,0.0,1.0,37,0.00,,,0.00,weatherlink.com 1.10,2013-02-17 23:22:00,
2013-02-17 17:37:00,44.5,20.0,30.18,SSE,163,1.0,2.0,37,0.00,,,0.00,weatherlink.com 1.10,2013-02-17 23:37:00,
2013-02-17 17:52:00,43.7,19.0,30.18,SSE,161,0.0,1.0,38,0.00,,,0.00,weatherlink.com 1.10,2013-02-17 23:52:00,
2013-02-17 18:07:00,43.2,20.0,30.18,SSE,161,0.0,1.0,39,0.00,,,0.00,weatherlink.com 1.10,2013-02-18 00:07:00,
2013-02-17 18:22:00,42.4,19.0,30.17,SSE,154,0.0,1.0,40,0.00,,,0.00,weatherlink.com 1.10,2013-02-18 00:22:00,
2013-02-17 18:37:00,42.0,21.0,30.18,SSE,154,0.0,0.0,43,0.00,,,0.00,weatherlink.com 1.10,2013-02-18 00:37:00,
2013-02-17 18:52:00,41.3,20.0,30.18,SSE,154,0.0,0.0,43,0.00,,,0.00,weatherlink.com 1.10,2013-02-18 00:52:00,
2013-02-17 19:07:00,40.8,21.0,30.18,SSE,154,0.0,0.0,46,0.00,,,0.00,weatherlink.com 1.10,2013-02-18 01:07:00,
2013-02-17 19:22:00,40.3,21.0,30.18,SSE,154,0.0,0.0,46,0.00,,,0.00,weatherlink.com 1.10,2013-02-18 01:22:00,
2013-02-17 19:37:00,40.2,21.0,30.18,SSE,154,0.0,1.0,46,0.00,,,0.00,weatherlink.com 1.10,2013-02-18 01:37:00,
2013-02-17 19:52:00,39.7,21.0,30.18,SSE,154,0.0,0.0,47,0.00,,,0.00,weatherlink.com 1.10,2013-02-18 01:52:00,
2013-02-17 20:07:00,39.3,21.0,30.18,SSE,154,0.0,0.0,49,0.00,,,0.00,weatherlink.com 1.10,2013-02-18 02:07:00,
2013-02-17 20:22:00,38.9,21.0,30.18,SSE,154,0.0,0.0,49,0.00,,,0.00,weatherlink.com 1.10,2013-02-18 02:22:00,
2013-02-17 20:37:00,38.4,21.0,30.18,SSE,154,0.0,0.0,50,0.00,,,0.00,weatherlink.com 1.10,2013-02-18 02:37:00,
2013-02-17 20:52:00,38.2,21.0,30.18,SSE,154,0.0,0.0,51,0.00,,,0.00,weatherlink.com 1.10,2013-02-18 02:52:00,
2013-02-17 21:07:00,38.0,21.0,30.18,SSE,154,0.0,0.0,51,0.00,,,0.00,weatherlink.com 1.10,2013-02-18 03:07:00,
2013-02-17 21:22:00,37.8,21.0,30.18,SSE,154,0.0,0.0,51,0.00,,,0.00,weatherlink.com 1.10,2013-02-18 03:22:00,
2013-02-17 21:37:00,37.7,21.0,30.19,SSE,154,0.0,0.0,52,0.00,,,0.00,weatherlink.com 1.10,2013-02-18 03:37:00,
2013-02-17 21:52:00,37.4,21.0,30.18,SSE,154,0.0,1.0,52,0.00,,,0.00,weatherlink.com 1.10,2013-02-18 03:52:00,
2013-02-17 22:07:00,37.3,21.0,30.18,SSE,154,0.0,0.0,52,0.00,,,0.00,weatherlink.com 1.10,2013-02-18 04:07:00,
2013-02-17 22:22:00,37.4,21.0,30.18,SSE,154,0.0,0.0,52,0.00,,,0.00,weatherlink.com 1.10,2013-02-18 04:22:00,
2013-02-17 22:37:00,37.2,23.0,30.18,SSE,154,0.0,1.0,57,0.00,,,0.00,weatherlink.com 1.10,2013-02-18 04:37:00,
2013-02-17 22:52:00,36.7,21.0,30.18,SSE,154,0.0,1.0,53,0.00,,,0.00,weatherlink.com 1.10,2013-02-18 04:52:00,
2013-02-17 23:07:00,36.5,22.0,30.18,SSE,154,0.0,0.0,55,0.00,,,0.00,weatherlink.com 1.10,2013-02-18 05:07:00,
2013-02-17 23:22:00,36.3,21.0,30.17,SE,143,0.0,2.0,55,0.00,,,0.00,weatherlink.com 1.10,2013-02-18 05:22:00,
2013-02-17 23:37:00,36.1,22.0,30.17,SE,142,0.0,1.0,56,0.00,,,0.00,weatherlink.com 1.10,2013-02-18 05:37:00,